sensor_id;sensor_type;location;lat;lon;timestamp;temperature;humidity
37446;DHT22;23307;51.136;14.942;2023-04-03T00:00:53;3.90;99.90
37446;DHT22;23307;51.136;14.942;2023-04-03T00:03:19;3.90;99.90
37446;DHT22;23307;51.136;14.942;2023-04-03T00:05:46;3.80;99.90
37446;DHT22;23307;51.136;14.942;2023-04-03T00:08:11;3.80;99.90
37446;DHT22;23307;51.136;14.942;2023-04-03T00:10:37;3.70;99.90
37446;DHT22;23307;51.136;14.942;2023-04-03T00:13:04;3.70;99.90
37446;DHT22;23307;51.136;14.942;2023-04-03T00:15:30;3.70;99.90
37446;DHT22;23307;51.136;14.942;2023-04-03T00:17:56;3.70;99.90
37446;DHT22;23307;51.136;14.942;2023-04-03T00:20:22;3.60;99.90
37446;DHT22;23307;51.136;14.942;2023-04-03T00:22:47;3.60;99.90
37446;DHT22;23307;51.136;14.942;2023-04-03T00:25:13;3.60;99.90
37446;DHT22;23307;51.136;14.942;2023-04-03T00:27:39;3.60;99.90
37446;DHT22;23307;51.136;14.942;2023-04-03T00:30:07;3.50;99.90
37446;DHT22;23307;51.136;14.942;2023-04-03T00:32:33;3.50;99.90
37446;DHT22;23307;51.136;14.942;2023-04-03T00:34:59;3.50;99.90
37446;DHT22;23307;51.136;14.942;2023-04-03T00:37:24;3.50;99.90
37446;DHT22;23307;51.136;14.942;2023-04-03T00:39:50;3.40;99.90
37446;DHT22;23307;51.136;14.942;2023-04-03T00:42:15;3.40;99.90
37446;DHT22;23307;51.136;14.942;2023-04-03T00:47:09;3.40;99.90
37446;DHT22;23307;51.136;14.942;2023-04-03T00:49:37;3.30;99.90
37446;DHT22;23307;51.136;14.942;2023-04-03T00:52:05;3.30;99.90
37446;DHT22;23307;51.136;14.942;2023-04-03T00:54:32;3.30;99.90
37446;DHT22;23307;51.136;14.942;2023-04-03T00:56:58;3.20;99.90
37446;DHT22;23307;51.136;14.942;2023-04-03T00:59:27;3.20;99.90
37446;DHT22;23307;51.136;14.942;2023-04-03T01:01:56;3.20;99.90
37446;DHT22;23307;51.136;14.942;2023-04-03T01:04:30;3.10;99.90
37446;DHT22;23307;51.136;14.942;2023-04-03T01:06:58;3.00;99.90
37446;DHT22;23307;51.136;14.942;2023-04-03T01:09:25;3.00;99.90
37446;DHT22;23307;51.136;14.942;2023-04-03T01:11:51;3.00;99.90
37446;DHT22;23307;51.136;14.942;2023-04-03T01:14:17;3.00;99.90
37446;DHT22;23307;51.136;14.942;2023-04-03T01:16:42;2.90;99.90
37446;DHT22;23307;51.136;14.942;2023-04-03T01:19:12;2.90;99.90
37446;DHT22;23307;51.136;14.942;2023-04-03T01:24:38;2.80;99.90
37446;DHT22;23307;51.136;14.942;2023-04-03T01:27:06;2.70;99.90
37446;DHT22;23307;51.136;14.942;2023-04-03T01:29:33;2.70;99.90
37446;DHT22;23307;51.136;14.942;2023-04-03T01:32:00;2.60;99.90
37446;DHT22;23307;51.136;14.942;2023-04-03T01:34:27;2.60;99.90
37446;DHT22;23307;51.136;14.942;2023-04-03T01:36:53;2.50;99.90
37446;DHT22;23307;51.136;14.942;2023-04-03T01:39:19;2.50;99.90
37446;DHT22;23307;51.136;14.942;2023-04-03T01:41:45;2.50;99.90
37446;DHT22;23307;51.136;14.942;2023-04-03T01:44:11;2.50;99.90
37446;DHT22;23307;51.136;14.942;2023-04-03T01:46:36;2.40;99.90
37446;DHT22;23307;51.136;14.942;2023-04-03T01:49:03;2.40;99.90
37446;DHT22;23307;51.136;14.942;2023-04-03T01:51:28;2.30;99.90
37446;DHT22;23307;51.136;14.942;2023-04-03T01:53:54;2.30;99.90
37446;DHT22;23307;51.136;14.942;2023-04-03T01:56:20;2.30;99.90
37446;DHT22;23307;51.136;14.942;2023-04-03T01:58:45;2.20;99.90
37446;DHT22;23307;51.136;14.942;2023-04-03T02:01:11;2.20;99.90
37446;DHT22;23307;51.136;14.942;2023-04-03T02:03:36;2.20;99.90
37446;DHT22;23307;51.136;14.942;2023-04-03T02:06:02;2.20;99.90
37446;DHT22;23307;51.136;14.942;2023-04-03T02:08:28;2.20;99.90
37446;DHT22;23307;51.136;14.942;2023-04-03T02:10:53;2.10;99.90
37446;DHT22;23307;51.136;14.942;2023-04-03T02:13:19;2.10;99.90
37446;DHT22;23307;51.136;14.942;2023-04-03T02:15:45;2.10;99.90
37446;DHT22;23307;51.136;14.942;2023-04-03T02:18:11;2.00;99.90
37446;DHT22;23307;51.136;14.942;2023-04-03T02:20:36;2.00;99.90
37446;DHT22;23307;51.136;14.942;2023-04-03T02:23:03;1.90;99.90
37446;DHT22;23307;51.136;14.942;2023-04-03T02:25:30;1.90;99.90
37446;DHT22;23307;51.136;14.942;2023-04-03T02:27:55;1.80;99.90
37446;DHT22;23307;51.136;14.942;2023-04-03T02:30:21;1.80;99.90
37446;DHT22;23307;51.136;14.942;2023-04-03T02:32:46;1.80;99.90
37446;DHT22;23307;51.136;14.942;2023-04-03T02:35:12;1.70;99.90
37446;DHT22;23307;51.136;14.942;2023-04-03T02:37:38;1.60;99.90
37446;DHT22;23307;51.136;14.942;2023-04-03T02:40:04;1.50;99.90
37446;DHT22;23307;51.136;14.942;2023-04-03T02:42:30;1.60;99.90
37446;DHT22;23307;51.136;14.942;2023-04-03T02:44:56;1.60;99.90
37446;DHT22;23307;51.136;14.942;2023-04-03T02:47:21;1.60;99.90
37446;DHT22;23307;51.136;14.942;2023-04-03T02:49:47;1.50;99.90
37446;DHT22;23307;51.136;14.942;2023-04-03T02:52:13;1.40;99.90
37446;DHT22;23307;51.136;14.942;2023-04-03T02:54:39;1.40;99.90
37446;DHT22;23307;51.136;14.942;2023-04-03T02:57:04;1.40;99.90
37446;DHT22;23307;51.136;14.942;2023-04-03T02:59:30;1.40;99.90
37446;DHT22;23307;51.136;14.942;2023-04-03T03:01:56;1.40;99.90
37446;DHT22;23307;51.136;14.942;2023-04-03T03:04:22;1.40;99.90
37446;DHT22;23307;51.136;14.942;2023-04-03T03:06:47;1.40;99.90
37446;DHT22;23307;51.136;14.942;2023-04-03T03:09:13;1.40;99.90
37446;DHT22;23307;51.136;14.942;2023-04-03T03:11:39;1.40;99.90
37446;DHT22;23307;51.136;14.942;2023-04-03T03:14:05;1.30;99.90
37446;DHT22;23307;51.136;14.942;2023-04-03T03:16:30;1.20;99.90
37446;DHT22;23307;51.136;14.942;2023-04-03T03:18:56;1.20;99.90
37446;DHT22;23307;51.136;14.942;2023-04-03T03:21:21;1.10;99.90
37446;DHT22;23307;51.136;14.942;2023-04-03T03:23:47;1.10;99.90
37446;DHT22;23307;51.136;14.942;2023-04-03T03:26:13;1.10;99.90
37446;DHT22;23307;51.136;14.942;2023-04-03T03:28:39;1.10;99.90
37446;DHT22;23307;51.136;14.942;2023-04-03T03:31:05;1.00;99.90
37446;DHT22;23307;51.136;14.942;2023-04-03T03:33:31;1.00;99.90
37446;DHT22;23307;51.136;14.942;2023-04-03T03:35:57;1.00;99.90
37446;DHT22;23307;51.136;14.942;2023-04-03T03:38:23;1.00;99.90
37446;DHT22;23307;51.136;14.942;2023-04-03T03:40:49;0.90;99.90
37446;DHT22;23307;51.136;14.942;2023-04-03T03:43:15;0.90;99.90
37446;DHT22;23307;51.136;14.942;2023-04-03T03:45:41;0.90;99.90
37446;DHT22;23307;51.136;14.942;2023-04-03T03:48:07;0.80;99.90
37446;DHT22;23307;51.136;14.942;2023-04-03T03:50:33;0.80;99.90
37446;DHT22;23307;51.136;14.942;2023-04-03T03:52:59;0.80;99.90
37446;DHT22;23307;51.136;14.942;2023-04-03T03:55:24;0.80;99.90
37446;DHT22;23307;51.136;14.942;2023-04-03T03:57:50;0.80;99.90
37446;DHT22;23307;51.136;14.942;2023-04-03T04:00:16;0.80;99.90
37446;DHT22;23307;51.136;14.942;2023-04-03T04:02:42;0.70;99.90
37446;DHT22;23307;51.136;14.942;2023-04-03T04:05:08;0.60;99.90
37446;DHT22;23307;51.136;14.942;2023-04-03T04:07:33;0.60;99.90
37446;DHT22;23307;51.136;14.942;2023-04-03T04:09:59;0.60;99.90
37446;DHT22;23307;51.136;14.942;2023-04-03T04:12:24;0.50;99.90
37446;DHT22;23307;51.136;14.942;2023-04-03T04:14:50;0.50;99.90
37446;DHT22;23307;51.136;14.942;2023-04-03T04:17:15;0.40;99.90
37446;DHT22;23307;51.136;14.942;2023-04-03T04:19:41;0.40;99.90
37446;DHT22;23307;51.136;14.942;2023-04-03T04:22:06;0.40;99.90
37446;DHT22;23307;51.136;14.942;2023-04-03T04:24:32;0.40;99.90
37446;DHT22;23307;51.136;14.942;2023-04-03T04:26:58;0.40;99.90
37446;DHT22;23307;51.136;14.942;2023-04-03T04:29:23;0.30;99.90
37446;DHT22;23307;51.136;14.942;2023-04-03T04:31:49;0.30;99.90
37446;DHT22;23307;51.136;14.942;2023-04-03T04:34:14;0.40;99.90
37446;DHT22;23307;51.136;14.942;2023-04-03T04:36:40;0.40;99.90
37446;DHT22;23307;51.136;14.942;2023-04-03T04:39:06;0.40;99.90
37446;DHT22;23307;51.136;14.942;2023-04-03T04:41:32;0.40;99.90
37446;DHT22;23307;51.136;14.942;2023-04-03T04:43:57;0.40;99.90
37446;DHT22;23307;51.136;14.942;2023-04-03T04:46:23;0.40;99.90
37446;DHT22;23307;51.136;14.942;2023-04-03T04:48:48;0.30;99.90
37446;DHT22;23307;51.136;14.942;2023-04-03T04:51:14;0.40;99.90
37446;DHT22;23307;51.136;14.942;2023-04-03T04:53:40;0.40;99.90
37446;DHT22;23307;51.136;14.942;2023-04-03T04:56:06;0.40;99.90
37446;DHT22;23307;51.136;14.942;2023-04-03T04:58:32;0.40;99.90
37446;DHT22;23307;51.136;14.942;2023-04-03T05:01:02;0.40;99.90
37446;DHT22;23307;51.136;14.942;2023-04-03T05:03:28;0.40;99.90
37446;DHT22;23307;51.136;14.942;2023-04-03T05:05:53;0.50;99.90
37446;DHT22;23307;51.136;14.942;2023-04-03T05:08:19;0.40;99.90
37446;DHT22;23307;51.136;14.942;2023-04-03T05:10:45;0.40;99.90
37446;DHT22;23307;51.136;14.942;2023-04-03T05:13:11;0.50;99.90
37446;DHT22;23307;51.136;14.942;2023-04-03T05:15:37;0.50;99.90
37446;DHT22;23307;51.136;14.942;2023-04-03T05:18:02;0.50;99.90
37446;DHT22;23307;51.136;14.942;2023-04-03T05:20:28;0.50;99.90
37446;DHT22;23307;51.136;14.942;2023-04-03T05:22:53;0.60;99.90
37446;DHT22;23307;51.136;14.942;2023-04-03T05:25:19;0.50;99.90
37446;DHT22;23307;51.136;14.942;2023-04-03T05:27:44;0.60;99.90
37446;DHT22;23307;51.136;14.942;2023-04-03T05:30:10;0.60;99.90
37446;DHT22;23307;51.136;14.942;2023-04-03T05:32:36;0.70;99.90
37446;DHT22;23307;51.136;14.942;2023-04-03T05:35:01;0.70;99.90
37446;DHT22;23307;51.136;14.942;2023-04-03T05:37:27;0.70;99.90
37446;DHT22;23307;51.136;14.942;2023-04-03T05:39:52;0.70;99.90
37446;DHT22;23307;51.136;14.942;2023-04-03T05:42:18;0.70;99.90
37446;DHT22;23307;51.136;14.942;2023-04-03T05:44:43;0.60;99.90
37446;DHT22;23307;51.136;14.942;2023-04-03T05:47:11;0.60;99.90
37446;DHT22;23307;51.136;14.942;2023-04-03T05:49:36;0.70;99.90
37446;DHT22;23307;51.136;14.942;2023-04-03T05:52:06;0.70;99.90
37446;DHT22;23307;51.136;14.942;2023-04-03T05:54:32;0.70;99.90
37446;DHT22;23307;51.136;14.942;2023-04-03T05:56:57;0.80;99.90
37446;DHT22;23307;51.136;14.942;2023-04-03T05:59:22;0.90;99.90
37446;DHT22;23307;51.136;14.942;2023-04-03T06:01:48;0.90;99.90
37446;DHT22;23307;51.136;14.942;2023-04-03T06:04:14;0.90;99.90
37446;DHT22;23307;51.136;14.942;2023-04-03T06:06:54;1.00;99.90
37446;DHT22;23307;51.136;14.942;2023-04-03T06:09:22;1.00;99.90
37446;DHT22;23307;51.136;14.942;2023-04-03T06:11:48;1.10;99.90
37446;DHT22;23307;51.136;14.942;2023-04-03T06:14:13;1.20;99.90
37446;DHT22;23307;51.136;14.942;2023-04-03T06:16:39;1.20;99.90
37446;DHT22;23307;51.136;14.942;2023-04-03T06:19:06;1.30;99.90
37446;DHT22;23307;51.136;14.942;2023-04-03T06:21:32;1.30;99.90
37446;DHT22;23307;51.136;14.942;2023-04-03T06:23:57;1.40;99.90
37446;DHT22;23307;51.136;14.942;2023-04-03T06:26:23;1.50;99.90
37446;DHT22;23307;51.136;14.942;2023-04-03T06:28:48;1.50;99.90
37446;DHT22;23307;51.136;14.942;2023-04-03T06:31:14;1.60;99.90
37446;DHT22;23307;51.136;14.942;2023-04-03T06:33:39;1.60;99.90
37446;DHT22;23307;51.136;14.942;2023-04-03T06:36:05;1.60;99.90
37446;DHT22;23307;51.136;14.942;2023-04-03T06:38:32;1.70;99.90
37446;DHT22;23307;51.136;14.942;2023-04-03T06:40:58;1.70;99.90
37446;DHT22;23307;51.136;14.942;2023-04-03T06:43:24;1.70;99.90
37446;DHT22;23307;51.136;14.942;2023-04-03T06:45:50;1.70;99.90
37446;DHT22;23307;51.136;14.942;2023-04-03T06:48:16;1.70;99.90
37446;DHT22;23307;51.136;14.942;2023-04-03T06:50:41;1.70;99.90
37446;DHT22;23307;51.136;14.942;2023-04-03T06:53:07;1.80;99.90
37446;DHT22;23307;51.136;14.942;2023-04-03T06:55:33;1.90;99.90
37446;DHT22;23307;51.136;14.942;2023-04-03T06:57:59;1.90;99.90
37446;DHT22;23307;51.136;14.942;2023-04-03T07:00:24;2.00;99.90
37446;DHT22;23307;51.136;14.942;2023-04-03T07:02:50;2.10;99.90
37446;DHT22;23307;51.136;14.942;2023-04-03T07:05:15;2.10;99.90
37446;DHT22;23307;51.136;14.942;2023-04-03T07:07:41;2.10;99.90
37446;DHT22;23307;51.136;14.942;2023-04-03T07:10:07;2.10;99.90
37446;DHT22;23307;51.136;14.942;2023-04-03T07:12:33;2.20;99.90
37446;DHT22;23307;51.136;14.942;2023-04-03T07:14:58;2.30;99.90
37446;DHT22;23307;51.136;14.942;2023-04-03T07:17:24;2.50;99.90
37446;DHT22;23307;51.136;14.942;2023-04-03T07:19:51;2.60;99.90
37446;DHT22;23307;51.136;14.942;2023-04-03T07:22:16;2.70;99.90
37446;DHT22;23307;51.136;14.942;2023-04-03T07:24:42;2.70;99.90
37446;DHT22;23307;51.136;14.942;2023-04-03T07:27:07;2.70;99.90
37446;DHT22;23307;51.136;14.942;2023-04-03T07:29:34;2.80;99.90
37446;DHT22;23307;51.136;14.942;2023-04-03T07:31:59;2.80;99.90
37446;DHT22;23307;51.136;14.942;2023-04-03T07:34:25;2.90;99.90
37446;DHT22;23307;51.136;14.942;2023-04-03T07:36:51;3.00;99.90
37446;DHT22;23307;51.136;14.942;2023-04-03T07:39:16;3.10;99.90
37446;DHT22;23307;51.136;14.942;2023-04-03T07:41:42;3.20;99.90
37446;DHT22;23307;51.136;14.942;2023-04-03T07:44:07;3.30;99.90
37446;DHT22;23307;51.136;14.942;2023-04-03T07:46:35;3.30;99.90
37446;DHT22;23307;51.136;14.942;2023-04-03T07:49:00;3.30;99.90
37446;DHT22;23307;51.136;14.942;2023-04-03T07:51:26;3.30;99.90
37446;DHT22;23307;51.136;14.942;2023-04-03T07:53:53;3.30;99.90
37446;DHT22;23307;51.136;14.942;2023-04-03T07:56:19;3.40;99.90
37446;DHT22;23307;51.136;14.942;2023-04-03T07:58:45;3.50;99.90
37446;DHT22;23307;51.136;14.942;2023-04-03T08:01:11;3.60;99.90
37446;DHT22;23307;51.136;14.942;2023-04-03T08:03:38;3.60;99.90
37446;DHT22;23307;51.136;14.942;2023-04-03T08:06:05;3.60;99.90
37446;DHT22;23307;51.136;14.942;2023-04-03T08:08:31;3.60;99.90
37446;DHT22;23307;51.136;14.942;2023-04-03T08:10:59;3.70;99.90
37446;DHT22;23307;51.136;14.942;2023-04-03T08:13:26;3.90;99.90
37446;DHT22;23307;51.136;14.942;2023-04-03T08:15:51;4.00;99.90
37446;DHT22;23307;51.136;14.942;2023-04-03T08:18:17;4.10;99.90
37446;DHT22;23307;51.136;14.942;2023-04-03T08:20:44;4.30;99.90
37446;DHT22;23307;51.136;14.942;2023-04-03T08:23:10;4.60;99.90
37446;DHT22;23307;51.136;14.942;2023-04-03T08:25:40;4.80;99.90
37446;DHT22;23307;51.136;14.942;2023-04-03T08:28:06;4.90;99.90
37446;DHT22;23307;51.136;14.942;2023-04-03T08:30:32;4.90;99.90
37446;DHT22;23307;51.136;14.942;2023-04-03T08:32:59;4.80;99.90
37446;DHT22;23307;51.136;14.942;2023-04-03T08:35:25;4.90;99.90
37446;DHT22;23307;51.136;14.942;2023-04-03T08:37:50;5.00;99.90
37446;DHT22;23307;51.136;14.942;2023-04-03T08:40:16;5.00;99.90
37446;DHT22;23307;51.136;14.942;2023-04-03T08:42:54;5.10;99.90
37446;DHT22;23307;51.136;14.942;2023-04-03T08:45:53;5.10;99.90
37446;DHT22;23307;51.136;14.942;2023-04-03T08:48:27;5.20;99.90
37446;DHT22;23307;51.136;14.942;2023-04-03T08:51:02;5.40;99.90
37446;DHT22;23307;51.136;14.942;2023-04-03T08:53:33;5.60;99.90
37446;DHT22;23307;51.136;14.942;2023-04-03T08:56:06;5.70;99.90
37446;DHT22;23307;51.136;14.942;2023-04-03T08:58:41;5.70;99.90
37446;DHT22;23307;51.136;14.942;2023-04-03T09:01:27;5.70;99.90
37446;DHT22;23307;51.136;14.942;2023-04-03T09:03:55;5.70;99.90
37446;DHT22;23307;51.136;14.942;2023-04-03T09:06:25;5.50;99.90
37446;DHT22;23307;51.136;14.942;2023-04-03T09:09:15;5.50;99.90
37446;DHT22;23307;51.136;14.942;2023-04-03T09:14:42;5.60;99.90
37446;DHT22;23307;51.136;14.942;2023-04-03T09:17:33;6.00;99.90
37446;DHT22;23307;51.136;14.942;2023-04-03T09:20:17;6.10;99.90
37446;DHT22;23307;51.136;14.942;2023-04-03T09:22:45;6.30;99.90
37446;DHT22;23307;51.136;14.942;2023-04-03T09:25:22;6.70;99.90
37446;DHT22;23307;51.136;14.942;2023-04-03T09:27:49;7.00;99.90
37446;DHT22;23307;51.136;14.942;2023-04-03T09:30:18;7.20;99.90
37446;DHT22;23307;51.136;14.942;2023-04-03T09:32:46;7.20;99.70
37446;DHT22;23307;51.136;14.942;2023-04-03T09:35:36;7.00;99.30
37446;DHT22;23307;51.136;14.942;2023-04-03T09:40:47;6.50;98.70
37446;DHT22;23307;51.136;14.942;2023-04-03T09:45:42;6.60;99.60
37446;DHT22;23307;51.136;14.942;2023-04-03T09:48:15;6.90;99.40
37446;DHT22;23307;51.136;14.942;2023-04-03T09:53:39;7.60;99.10
37446;DHT22;23307;51.136;14.942;2023-04-03T09:56:28;7.80;97.00
37446;DHT22;23307;51.136;14.942;2023-04-03T10:01:32;8.50;97.60
37446;DHT22;23307;51.136;14.942;2023-04-03T10:04:15;8.80;97.80
37446;DHT22;23307;51.136;14.942;2023-04-03T10:06:53;9.00;95.70
37446;DHT22;23307;51.136;14.942;2023-04-03T10:09:30;8.70;93.80
37446;DHT22;23307;51.136;14.942;2023-04-03T10:17:54;7.40;92.30
37446;DHT22;23307;51.136;14.942;2023-04-03T10:20:38;7.10;92.40
37446;DHT22;23307;51.136;14.942;2023-04-03T10:26:04;6.90;91.30
37446;DHT22;23307;51.136;14.942;2023-04-03T10:31:46;7.20;93.00
37446;DHT22;23307;51.136;14.942;2023-04-03T10:34:28;7.40;91.80
37446;DHT22;23307;51.136;14.942;2023-04-03T10:37:18;7.20;90.10
37446;DHT22;23307;51.136;14.942;2023-04-03T10:40:02;7.20;91.20
37446;DHT22;23307;51.136;14.942;2023-04-03T10:42:45;7.10;90.90
37446;DHT22;23307;51.136;14.942;2023-04-03T10:45:30;7.00;91.40
37446;DHT22;23307;51.136;14.942;2023-04-03T10:48:11;7.00;91.60
37446;DHT22;23307;51.136;14.942;2023-04-03T10:51:12;7.00;91.80
37446;DHT22;23307;51.136;14.942;2023-04-03T10:53:44;7.00;91.70
37446;DHT22;23307;51.136;14.942;2023-04-03T10:58:46;7.10;91.00
37446;DHT22;23307;51.136;14.942;2023-04-03T11:01:16;7.00;88.40
37446;DHT22;23307;51.136;14.942;2023-04-03T11:03:48;6.80;87.90
37446;DHT22;23307;51.136;14.942;2023-04-03T11:06:16;6.80;89.30
37446;DHT22;23307;51.136;14.942;2023-04-03T11:08:51;6.90;88.40
37446;DHT22;23307;51.136;14.942;2023-04-03T11:11:25;6.80;89.50
37446;DHT22;23307;51.136;14.942;2023-04-03T11:13:57;6.90;90.50
37446;DHT22;23307;51.136;14.942;2023-04-03T11:16:30;6.90;90.50
37446;DHT22;23307;51.136;14.942;2023-04-03T11:19:04;6.80;90.10
37446;DHT22;23307;51.136;14.942;2023-04-03T11:24:27;6.60;90.30
37446;DHT22;23307;51.136;14.942;2023-04-03T11:26:54;6.50;90.80
37446;DHT22;23307;51.136;14.942;2023-04-03T11:29:26;6.60;91.10
37446;DHT22;23307;51.136;14.942;2023-04-03T11:34:56;7.00;91.50
37446;DHT22;23307;51.136;14.942;2023-04-03T11:37:40;7.00;91.30
37446;DHT22;23307;51.136;14.942;2023-04-03T11:40:33;7.00;90.90
37446;DHT22;23307;51.136;14.942;2023-04-03T11:45:32;6.90;89.40
37446;DHT22;23307;51.136;14.942;2023-04-03T11:47:59;7.00;90.00
37446;DHT22;23307;51.136;14.942;2023-04-03T11:53:27;7.50;90.00
37446;DHT22;23307;51.136;14.942;2023-04-03T11:55:56;7.40;88.00
37446;DHT22;23307;51.136;14.942;2023-04-03T11:58:34;7.40;87.90
37446;DHT22;23307;51.136;14.942;2023-04-03T12:01:11;7.40;89.90
37446;DHT22;23307;51.136;14.942;2023-04-03T12:29:38;7.60;82.40
37446;DHT22;23307;51.136;14.942;2023-04-03T12:35:21;7.20;83.40
37446;DHT22;23307;51.136;14.942;2023-04-03T12:51:18;7.40;86.80
37446;DHT22;23307;51.136;14.942;2023-04-03T12:53:45;7.30;84.20
37446;DHT22;23307;51.136;14.942;2023-04-03T12:58:49;7.20;82.90
37446;DHT22;23307;51.136;14.942;2023-04-03T13:01:17;7.10;82.80
37446;DHT22;23307;51.136;14.942;2023-04-03T13:03:47;7.20;83.40
37446;DHT22;23307;51.136;14.942;2023-04-03T13:06:30;7.30;83.80
37446;DHT22;23307;51.136;14.942;2023-04-03T13:08:59;7.40;82.70
37446;DHT22;23307;51.136;14.942;2023-04-03T13:11:38;7.40;81.40
37446;DHT22;23307;51.136;14.942;2023-04-03T13:14:15;7.30;80.10
37446;DHT22;23307;51.136;14.942;2023-04-03T13:16:41;7.20;80.20
37446;DHT22;23307;51.136;14.942;2023-04-03T13:19:15;7.20;80.50
37446;DHT22;23307;51.136;14.942;2023-04-03T13:21:41;7.00;79.70
37446;DHT22;23307;51.136;14.942;2023-04-03T13:24:08;7.00;81.30
37446;DHT22;23307;51.136;14.942;2023-04-03T13:26:35;7.00;80.70
37446;DHT22;23307;51.136;14.942;2023-04-03T13:29:06;6.90;80.80
37446;DHT22;23307;51.136;14.942;2023-04-03T13:31:36;7.30;82.70
37446;DHT22;23307;51.136;14.942;2023-04-03T13:34:13;7.70;80.30
37446;DHT22;23307;51.136;14.942;2023-04-03T13:36:54;8.10;79.80
37446;DHT22;23307;51.136;14.942;2023-04-03T13:39:32;8.70;83.00
37446;DHT22;23307;51.136;14.942;2023-04-03T13:42:14;8.90;78.70
37446;DHT22;23307;51.136;14.942;2023-04-03T13:44:40;8.60;75.30
37446;DHT22;23307;51.136;14.942;2023-04-03T13:47:16;7.90;75.60
37446;DHT22;23307;51.136;14.942;2023-04-03T13:50:13;7.70;77.30
37446;DHT22;23307;51.136;14.942;2023-04-03T13:52:53;7.50;77.60
37446;DHT22;23307;51.136;14.942;2023-04-03T13:57:51;7.40;78.40
37446;DHT22;23307;51.136;14.942;2023-04-03T14:00:39;7.50;78.20
37446;DHT22;23307;51.136;14.942;2023-04-03T14:03:29;7.50;78.10
37446;DHT22;23307;51.136;14.942;2023-04-03T14:05:54;7.90;79.20
37446;DHT22;23307;51.136;14.942;2023-04-03T14:08:21;8.00;74.20
37446;DHT22;23307;51.136;14.942;2023-04-03T14:10:47;7.70;73.80
37446;DHT22;23307;51.136;14.942;2023-04-03T14:13:16;7.50;74.20
37446;DHT22;23307;51.136;14.942;2023-04-03T14:15:43;7.30;75.80
37446;DHT22;23307;51.136;14.942;2023-04-03T14:18:13;7.20;77.20
37446;DHT22;23307;51.136;14.942;2023-04-03T14:20:39;7.10;77.60
37446;DHT22;23307;51.136;14.942;2023-04-03T14:23:04;7.20;78.50
37446;DHT22;23307;51.136;14.942;2023-04-03T14:25:30;7.10;77.20
37446;DHT22;23307;51.136;14.942;2023-04-03T14:27:55;7.10;77.90
37446;DHT22;23307;51.136;14.942;2023-04-03T14:30:27;7.10;77.10
37446;DHT22;23307;51.136;14.942;2023-04-03T14:32:53;7.00;76.70
37446;DHT22;23307;51.136;14.942;2023-04-03T14:35:19;7.00;77.30
37446;DHT22;23307;51.136;14.942;2023-04-03T14:37:46;7.20;77.10
37446;DHT22;23307;51.136;14.942;2023-04-03T14:40:20;7.80;77.20
37446;DHT22;23307;51.136;14.942;2023-04-03T14:42:47;8.00;77.30
37446;DHT22;23307;51.136;14.942;2023-04-03T14:45:15;8.00;76.70
37446;DHT22;23307;51.136;14.942;2023-04-03T14:48:01;8.10;76.30
37446;DHT22;23307;51.136;14.942;2023-04-03T14:50:28;7.90;74.60
37446;DHT22;23307;51.136;14.942;2023-04-03T14:52:57;7.80;74.80
37446;DHT22;23307;51.136;14.942;2023-04-03T14:55:24;7.50;74.50
37446;DHT22;23307;51.136;14.942;2023-04-03T14:57:50;7.30;76.00
37446;DHT22;23307;51.136;14.942;2023-04-03T15:00:18;7.30;76.90
37446;DHT22;23307;51.136;14.942;2023-04-03T15:02:44;7.70;80.00
37446;DHT22;23307;51.136;14.942;2023-04-03T15:05:11;8.50;82.70
37446;DHT22;23307;51.136;14.942;2023-04-03T15:07:39;8.90;78.80
37446;DHT22;23307;51.136;14.942;2023-04-03T15:10:24;8.80;76.10
37446;DHT22;23307;51.136;14.942;2023-04-03T15:12:50;8.60;74.70
37446;DHT22;23307;51.136;14.942;2023-04-03T15:15:18;8.50;75.10
37446;DHT22;23307;51.136;14.942;2023-04-03T15:17:45;8.60;73.30
37446;DHT22;23307;51.136;14.942;2023-04-03T15:20:18;8.40;73.50
37446;DHT22;23307;51.136;14.942;2023-04-03T15:22:44;8.10;72.80
37446;DHT22;23307;51.136;14.942;2023-04-03T15:25:10;7.90;74.00
37446;DHT22;23307;51.136;14.942;2023-04-03T15:27:36;7.70;74.00
37446;DHT22;23307;51.136;14.942;2023-04-03T15:30:04;7.50;74.60
37446;DHT22;23307;51.136;14.942;2023-04-03T15:32:30;7.30;75.30
37446;DHT22;23307;51.136;14.942;2023-04-03T15:34:56;7.20;75.50
37446;DHT22;23307;51.136;14.942;2023-04-03T15:37:21;7.10;76.20
37446;DHT22;23307;51.136;14.942;2023-04-03T15:39:47;7.10;76.70
37446;DHT22;23307;51.136;14.942;2023-04-03T15:42:12;7.10;76.80
37446;DHT22;23307;51.136;14.942;2023-04-03T15:44:38;7.10;77.50
37446;DHT22;23307;51.136;14.942;2023-04-03T15:47:04;7.10;77.30
37446;DHT22;23307;51.136;14.942;2023-04-03T15:49:30;7.10;77.10
37446;DHT22;23307;51.136;14.942;2023-04-03T15:51:57;7.10;77.60
37446;DHT22;23307;51.136;14.942;2023-04-03T15:54:23;7.10;77.80
37446;DHT22;23307;51.136;14.942;2023-04-03T15:56:49;7.10;77.60
37446;DHT22;23307;51.136;14.942;2023-04-03T15:59:15;7.00;77.30
37446;DHT22;23307;51.136;14.942;2023-04-03T16:01:40;7.00;76.60
37446;DHT22;23307;51.136;14.942;2023-04-03T16:04:08;7.00;77.40
37446;DHT22;23307;51.136;14.942;2023-04-03T16:06:34;7.00;77.50
37446;DHT22;23307;51.136;14.942;2023-04-03T16:09:00;7.00;76.90
37446;DHT22;23307;51.136;14.942;2023-04-03T16:11:26;6.90;76.00
37446;DHT22;23307;51.136;14.942;2023-04-03T16:13:53;6.90;76.70
37446;DHT22;23307;51.136;14.942;2023-04-03T16:16:18;6.90;77.00
37446;DHT22;23307;51.136;14.942;2023-04-03T16:18:44;6.80;77.20
37446;DHT22;23307;51.136;14.942;2023-04-03T16:21:09;6.80;77.40
37446;DHT22;23307;51.136;14.942;2023-04-03T16:23:35;6.80;77.40
37446;DHT22;23307;51.136;14.942;2023-04-03T16:26:01;6.80;78.30
37446;DHT22;23307;51.136;14.942;2023-04-03T16:28:26;6.90;78.30
37446;DHT22;23307;51.136;14.942;2023-04-03T16:30:52;6.80;77.60
37446;DHT22;23307;51.136;14.942;2023-04-03T16:33:18;6.80;78.30
37446;DHT22;23307;51.136;14.942;2023-04-03T16:35:46;6.70;79.40
37446;DHT22;23307;51.136;14.942;2023-04-03T16:38:13;6.70;79.30
37446;DHT22;23307;51.136;14.942;2023-04-03T16:40:39;6.70;78.90
37446;DHT22;23307;51.136;14.942;2023-04-03T16:43:04;6.70;79.30
37446;DHT22;23307;51.136;14.942;2023-04-03T16:45:30;6.60;78.70
37446;DHT22;23307;51.136;14.942;2023-04-03T16:47:56;6.50;78.80
37446;DHT22;23307;51.136;14.942;2023-04-03T16:50:21;6.40;79.40
37446;DHT22;23307;51.136;14.942;2023-04-03T16:52:47;6.40;79.30
37446;DHT22;23307;51.136;14.942;2023-04-03T16:55:12;6.40;79.90
37446;DHT22;23307;51.136;14.942;2023-04-03T16:57:37;6.30;79.70
37446;DHT22;23307;51.136;14.942;2023-04-03T17:00:04;6.30;80.30
37446;DHT22;23307;51.136;14.942;2023-04-03T17:02:31;6.30;80.30
37446;DHT22;23307;51.136;14.942;2023-04-03T17:04:57;6.30;80.60
37446;DHT22;23307;51.136;14.942;2023-04-03T17:07:24;6.20;80.80
37446;DHT22;23307;51.136;14.942;2023-04-03T17:09:51;6.20;81.50